createdAt,value
2023-05-25T00:01:59.678Z,8.60
2023-05-25T00:04:31.392Z,8.60
2023-05-25T00:06:59.255Z,8.70
2023-05-25T00:09:27.291Z,8.50
2023-05-25T00:11:55.760Z,8.50
2023-05-25T00:14:27.920Z,8.60
2023-05-25T00:16:57.626Z,8.50
2023-05-25T00:19:27.109Z,8.50
2023-05-25T00:21:56.210Z,8.50
2023-05-25T00:24:24.614Z,8.60
2023-05-25T00:26:52.948Z,8.50
2023-05-25T00:29:21.147Z,8.50
2023-05-25T00:31:50.867Z,8.40
2023-05-25T00:34:20.379Z,8.50
2023-05-25T00:36:50.257Z,8.40
2023-05-25T00:39:20.448Z,8.30
2023-05-25T00:41:49.799Z,8.30
2023-05-25T00:44:21.702Z,8.20
2023-05-25T00:46:51.302Z,8.20
2023-05-25T00:49:23.342Z,8.20
2023-05-25T00:51:56.683Z,8.20
2023-05-25T00:54:25.402Z,8.10
2023-05-25T00:56:58.559Z,8.10
2023-05-25T00:59:35.685Z,8.00
2023-05-25T01:02:05.764Z,8.10
2023-05-25T01:04:37.637Z,8.00
2023-05-25T01:07:07.955Z,8.00
2023-05-25T01:09:47.581Z,7.90
2023-05-25T01:12:21.363Z,7.90
2023-05-25T01:14:50.738Z,7.90
2023-05-25T01:17:20.567Z,7.90
2023-05-25T01:20:08.211Z,7.90
2023-05-25T01:22:44.168Z,7.90
2023-05-25T01:25:23.429Z,7.90
2023-05-25T01:28:00.338Z,8.00
2023-05-25T01:30:31.744Z,8.00
2023-05-25T01:33:01.210Z,8.00
2023-05-25T01:35:31.633Z,7.90
2023-05-25T01:38:01.525Z,8.00
2023-05-25T01:40:31.248Z,8.00
2023-05-25T01:42:59.680Z,7.90
2023-05-25T01:45:28.590Z,7.90
2023-05-25T01:48:08.728Z,7.90
2023-05-25T01:50:44.544Z,7.90
2023-05-25T01:53:21.222Z,7.90
2023-05-25T01:55:54.368Z,7.90
2023-05-25T01:58:24.941Z,7.80
2023-05-25T02:00:54.165Z,7.80
2023-05-25T02:03:24.306Z,7.80
2023-05-25T02:05:53.133Z,7.80
2023-05-25T02:08:22.804Z,7.70
2023-05-25T02:10:51.493Z,7.80
2023-05-25T02:13:19.628Z,7.70
2023-05-25T02:15:47.894Z,7.70
2023-05-25T02:18:18.745Z,7.70
2023-05-25T02:20:48.687Z,7.60
2023-05-25T02:23:18.651Z,7.60
2023-05-25T02:25:52.619Z,7.60
2023-05-25T02:28:21.501Z,7.60
2023-05-25T02:30:49.475Z,7.60
2023-05-25T02:33:18.721Z,7.50
2023-05-25T02:35:47.396Z,7.50
2023-05-25T02:38:15.277Z,7.50
2023-05-25T02:40:52.710Z,7.50
2023-05-25T02:43:20.517Z,7.50
2023-05-25T02:45:51.273Z,7.50
2023-05-25T02:48:19.567Z,7.40
2023-05-25T02:50:47.851Z,7.30
2023-05-25T02:53:16.346Z,7.20
2023-05-25T02:55:44.879Z,7.30
2023-05-25T02:58:14.545Z,7.30
2023-05-25T03:00:42.884Z,7.30
2023-05-25T03:03:11.268Z,7.20
2023-05-25T03:05:42.660Z,7.20
2023-05-25T03:08:11.616Z,7.20
2023-05-25T03:10:42.717Z,7.20
2023-05-25T03:13:10.819Z,7.20
2023-05-25T03:15:41.268Z,7.20
2023-05-25T03:18:09.180Z,7.20
2023-05-25T03:20:37.915Z,7.20
2023-05-25T03:23:06.369Z,7.30
2023-05-25T03:25:34.403Z,7.30
2023-05-25T03:28:02.663Z,7.30
2023-05-25T03:30:31.440Z,7.20
2023-05-25T03:33:01.297Z,7.20
2023-05-25T03:35:29.886Z,7.20
2023-05-25T03:37:57.817Z,7.30
2023-05-25T03:40:25.967Z,7.30
2023-05-25T03:42:54.004Z,7.40
2023-05-25T03:45:21.879Z,7.30
2023-05-25T03:47:50.059Z,7.30
2023-05-25T03:50:19.909Z,7.40
2023-05-25T03:52:48.124Z,7.40
2023-05-25T03:55:16.506Z,7.40
2023-05-25T03:57:45.646Z,7.40
2023-05-25T04:00:15.729Z,7.40
2023-05-25T04:02:44.417Z,7.40
2023-05-25T04:05:12.335Z,7.40
2023-05-25T04:07:41.950Z,7.50
2023-05-25T04:10:10.679Z,7.50
2023-05-25T04:12:39.712Z,7.50
2023-05-25T04:15:12.518Z,7.50
2023-05-25T04:17:41.259Z,7.50
2023-05-25T04:20:13.304Z,7.50
2023-05-25T04:22:52.778Z,7.60
2023-05-25T04:25:21.380Z,7.60
2023-05-25T04:27:50.037Z,7.60
2023-05-25T04:30:20.776Z,7.60
2023-05-25T04:32:49.465Z,7.70
2023-05-25T04:35:20.861Z,7.80
2023-05-25T04:37:50.318Z,7.80
2023-05-25T04:40:18.361Z,7.90
2023-05-25T04:42:48.005Z,7.90
2023-05-25T04:45:22.217Z,7.90
2023-05-25T04:47:51.139Z,8.00
2023-05-25T04:50:19.348Z,8.10
2023-05-25T04:52:47.065Z,8.10
2023-05-25T04:55:21.183Z,8.20
2023-05-25T04:57:49.735Z,8.30
2023-05-25T05:00:20.070Z,8.30
2023-05-25T05:02:51.510Z,8.40
2023-05-25T05:05:19.361Z,8.40
2023-05-25T05:07:48.295Z,8.50
2023-05-25T05:10:17.815Z,8.60
2023-05-25T05:12:47.041Z,8.70
2023-05-25T05:15:14.851Z,8.80
2023-05-25T05:17:43.294Z,8.90
2023-05-25T05:20:11.734Z,9.00
2023-05-25T05:22:42.125Z,9.00
2023-05-25T05:25:10.918Z,8.90
2023-05-25T05:27:40.527Z,9.10
2023-05-25T05:30:10.138Z,9.00
2023-05-25T05:32:39.841Z,9.10
2023-05-25T05:35:08.916Z,9.20
2023-05-25T05:37:37.190Z,9.20
2023-05-25T05:40:09.182Z,9.30
2023-05-25T05:42:40.092Z,9.50
2023-05-25T05:45:09.350Z,9.70
2023-05-25T05:47:37.681Z,9.80
2023-05-25T05:50:07.002Z,9.90
2023-05-25T05:52:35.264Z,10.00
2023-05-25T05:55:03.609Z,10.20
2023-05-25T05:57:31.594Z,10.30
2023-05-25T06:00:01.925Z,10.30
2023-05-25T06:02:30.297Z,10.30
2023-05-25T06:05:01.797Z,10.30
2023-05-25T06:07:30.924Z,10.40
2023-05-25T06:09:59.191Z,10.50
2023-05-25T06:12:29.479Z,10.80
2023-05-25T06:14:57.522Z,11.00
2023-05-25T06:17:26.704Z,10.90
2023-05-25T06:19:55.160Z,10.90
2023-05-25T06:22:28.605Z,10.70
2023-05-25T06:24:59.700Z,10.70
2023-05-25T06:27:28.869Z,10.70
2023-05-25T06:29:56.880Z,10.70
2023-05-25T06:32:26.069Z,10.80
2023-05-25T06:34:56.090Z,10.80
2023-05-25T06:37:25.646Z,10.90
2023-05-25T06:39:54.867Z,11.00
2023-05-25T06:42:24.203Z,11.10
2023-05-25T06:44:56.455Z,11.20
2023-05-25T06:47:26.277Z,11.30
2023-05-25T06:49:55.079Z,11.20
2023-05-25T06:52:23.319Z,11.40
2023-05-25T06:54:54.105Z,11.50
2023-05-25T06:57:22.514Z,11.70
2023-05-25T06:59:51.275Z,11.80
2023-05-25T07:02:21.735Z,11.70
2023-05-25T07:04:51.764Z,11.70
2023-05-25T07:07:20.760Z,11.70
2023-05-25T07:09:50.173Z,11.80
2023-05-25T07:12:18.554Z,12.00
2023-05-25T07:14:48.556Z,12.00
2023-05-25T07:17:17.229Z,12.40
2023-05-25T07:19:46.147Z,12.50
2023-05-25T07:22:19.448Z,12.60
2023-05-25T07:24:49.029Z,12.40
2023-05-25T07:27:18.154Z,12.30
2023-05-25T07:29:46.340Z,12.30
2023-05-25T07:32:14.348Z,12.30
2023-05-25T07:34:44.796Z,12.50
2023-05-25T07:37:13.645Z,12.60
2023-05-25T07:39:45.141Z,12.90
2023-05-25T07:42:13.242Z,13.10
2023-05-25T07:44:41.213Z,13.00
2023-05-25T07:47:09.929Z,13.30
2023-05-25T07:49:38.116Z,13.20
2023-05-25T07:52:06.980Z,13.20
2023-05-25T07:54:35.001Z,13.50
2023-05-25T07:57:04.663Z,13.60
2023-05-25T07:59:32.725Z,13.80
2023-05-25T08:02:02.325Z,14.20
2023-05-25T08:04:30.930Z,14.70
2023-05-25T08:06:59.639Z,14.80
2023-05-25T08:09:30.057Z,14.70
2023-05-25T08:12:21.294Z,14.60
2023-05-25T08:14:47.576Z,14.80
2023-05-25T08:17:16.418Z,14.70
2023-05-25T08:19:44.322Z,14.90
2023-05-25T08:22:12.098Z,15.20
2023-05-25T08:24:39.884Z,15.20
2023-05-25T08:27:09.936Z,15.00
2023-05-25T08:29:38.449Z,14.90
2023-05-25T08:32:08.411Z,15.20
2023-05-25T08:34:36.638Z,15.60
2023-05-25T08:37:05.945Z,15.30
2023-05-25T08:39:34.996Z,15.30
2023-05-25T08:42:05.674Z,16.20
2023-05-25T08:44:33.991Z,16.50
2023-05-25T08:47:11.526Z,16.00
2023-05-25T08:49:41.793Z,15.50
2023-05-25T08:52:14.531Z,15.20
2023-05-25T08:54:48.826Z,15.70
2023-05-25T08:57:22.728Z,16.70
2023-05-25T08:59:58.150Z,16.90
2023-05-25T09:02:57.634Z,16.50
2023-05-25T09:05:28.148Z,15.80
2023-05-25T09:07:58.523Z,15.60
2023-05-25T09:10:29.073Z,15.10
2023-05-25T09:12:57.722Z,15.30
2023-05-25T09:15:25.730Z,15.50
2023-05-25T09:17:55.361Z,15.80
2023-05-25T09:20:25.819Z,16.30
2023-05-25T09:22:55.739Z,16.80
2023-05-25T09:25:26.315Z,16.80
2023-05-25T09:27:58.334Z,16.60
2023-05-25T09:30:27.788Z,16.40
2023-05-25T09:32:57.215Z,16.10
2023-05-25T09:35:26.461Z,16.40
2023-05-25T09:37:56.285Z,16.30
2023-05-25T09:40:24.761Z,16.10
2023-05-25T09:42:55.142Z,16.50
2023-05-25T09:45:24.697Z,16.80
2023-05-25T09:48:00.270Z,16.40
2023-05-25T09:50:29.476Z,16.40
2023-05-25T09:53:00.386Z,16.10
2023-05-25T09:55:40.034Z,16.50
2023-05-25T09:58:14.054Z,17.60
2023-05-25T10:00:42.420Z,18.60
2023-05-25T10:03:15.578Z,19.10
2023-05-25T10:05:44.269Z,19.40
2023-05-25T10:08:15.801Z,19.10
2023-05-25T10:10:44.875Z,18.90
2023-05-25T10:13:15.842Z,18.40
2023-05-25T10:15:46.797Z,16.80
2023-05-25T10:18:18.030Z,16.70
2023-05-25T10:20:50.527Z,16.60
2023-05-25T10:23:22.954Z,17.00
2023-05-25T10:25:57.393Z,17.20
2023-05-25T10:28:29.546Z,17.70
2023-05-25T10:30:59.824Z,18.40
2023-05-25T10:36:09.002Z,19.20
2023-05-25T10:38:42.152Z,19.10
2023-05-25T10:41:11.695Z,19.60
2023-05-25T10:43:40.440Z,19.40
2023-05-25T10:46:10.925Z,19.30
2023-05-25T10:48:46.372Z,19.60
2023-05-25T10:51:20.371Z,20.90
2023-05-25T10:53:53.364Z,20.10
2023-05-25T10:56:21.537Z,19.50
2023-05-25T10:58:50.328Z,18.80
2023-05-25T11:01:18.472Z,18.80
2023-05-25T11:03:55.317Z,19.30
2023-05-25T11:06:27.960Z,20.30
2023-05-25T11:09:01.470Z,19.70
2023-05-25T11:12:03.970Z,19.40
2023-05-25T11:14:33.232Z,18.60
2023-05-25T11:17:10.574Z,19.10
2023-05-25T11:19:46.204Z,19.10
2023-05-25T11:22:20.408Z,19.80
2023-05-25T11:24:49.826Z,19.70
2023-05-25T11:27:23.802Z,20.90
2023-05-25T11:29:54.444Z,21.00
2023-05-25T11:32:23.205Z,20.20
2023-05-25T11:34:55.282Z,21.00
2023-05-25T11:37:25.460Z,20.30
2023-05-25T11:39:57.463Z,19.90
2023-05-25T11:42:25.934Z,19.40
2023-05-25T11:44:53.949Z,19.40
2023-05-25T11:47:25.477Z,20.10
2023-05-25T11:50:00.169Z,21.30
2023-05-25T11:52:29.737Z,21.80
2023-05-25T11:54:58.096Z,19.90
2023-05-25T11:57:27.302Z,18.50
2023-05-25T11:59:57.269Z,18.30
2023-05-25T12:02:26.306Z,19.30
2023-05-25T12:04:57.004Z,19.30
2023-05-25T12:07:26.092Z,19.80
2023-05-25T12:09:53.977Z,21.00
2023-05-25T12:12:22.001Z,20.90
2023-05-25T12:14:50.501Z,20.90
2023-05-25T12:17:22.961Z,22.40
2023-05-25T12:19:51.395Z,22.60
2023-05-25T12:22:20.956Z,22.40
2023-05-25T12:24:51.159Z,20.50
2023-05-25T12:27:20.227Z,19.40
2023-05-25T12:29:49.970Z,20.00
2023-05-25T12:32:18.896Z,20.50
2023-05-25T12:34:49.382Z,20.40
2023-05-25T12:37:24.181Z,21.30
2023-05-25T12:39:52.245Z,21.80
2023-05-25T12:42:20.307Z,22.50
2023-05-25T12:44:48.358Z,21.40
2023-05-25T12:47:20.143Z,21.30
2023-05-25T12:49:51.844Z,21.20
2023-05-25T12:52:38.076Z,22.10
2023-05-25T12:55:29.101Z,21.30
2023-05-25T12:57:58.920Z,21.10
2023-05-25T13:00:29.193Z,21.20
2023-05-25T13:02:57.146Z,21.10
2023-05-25T13:05:27.221Z,21.20
2023-05-25T13:07:59.666Z,22.10
2023-05-25T13:10:29.017Z,22.80
2023-05-25T13:12:58.712Z,22.10
2023-05-25T13:15:30.110Z,22.30
2023-05-25T13:17:59.657Z,23.30
2023-05-25T13:20:29.613Z,22.30
2023-05-25T13:22:59.535Z,21.00
2023-05-25T13:25:28.221Z,21.20
2023-05-25T13:27:59.857Z,22.60
2023-05-25T13:30:29.172Z,22.50
2023-05-25T13:32:57.223Z,22.40
2023-05-25T13:35:37.942Z,21.20
2023-05-25T13:38:17.493Z,21.10
2023-05-25T13:40:46.927Z,22.80
2023-05-25T13:43:15.151Z,23.10
2023-05-25T13:45:43.582Z,23.90
2023-05-25T13:48:14.020Z,23.10
2023-05-25T13:50:42.377Z,22.60
2023-05-25T13:53:11.832Z,22.50
2023-05-25T13:55:39.936Z,22.70
2023-05-25T13:58:08.076Z,22.00
2023-05-25T14:00:37.306Z,23.30
2023-05-25T14:03:05.289Z,24.00
2023-05-25T14:05:33.149Z,24.30
2023-05-25T14:08:04.770Z,24.90
2023-05-25T14:10:34.377Z,24.90
2023-05-25T14:13:03.126Z,24.20
2023-05-25T14:15:30.861Z,23.20
2023-05-25T14:18:00.876Z,23.00
2023-05-25T14:20:33.648Z,22.70
2023-05-25T14:23:01.936Z,22.80
2023-05-25T14:25:30.008Z,22.80
2023-05-25T14:27:59.349Z,22.60
2023-05-25T14:30:27.388Z,22.30
2023-05-25T14:32:55.587Z,21.80
2023-05-25T14:35:24.327Z,22.30
2023-05-25T14:37:52.459Z,21.70
2023-05-25T14:40:22.047Z,21.60
2023-05-25T14:42:51.058Z,20.60
2023-05-25T14:45:20.611Z,20.50
2023-05-25T14:48:00.719Z,21.80
2023-05-25T14:50:35.983Z,22.00
2023-05-25T14:53:03.876Z,21.30
2023-05-25T14:55:31.735Z,20.70
2023-05-25T14:57:59.739Z,21.50
2023-05-25T15:00:31.232Z,22.90
2023-05-25T15:02:59.458Z,23.00
2023-05-25T15:05:27.562Z,23.00
2023-05-25T15:07:58.923Z,23.60
2023-05-25T15:10:28.782Z,24.40
2023-05-25T15:12:56.811Z,23.20
2023-05-25T15:15:24.620Z,21.90
2023-05-25T15:17:53.843Z,21.40
2023-05-25T15:20:22.249Z,21.20
2023-05-25T15:22:51.440Z,21.30
2023-05-25T15:25:33.958Z,23.10
2023-05-25T15:28:03.880Z,23.50
2023-05-25T15:30:33.164Z,24.10
2023-05-25T15:33:03.411Z,23.10
2023-05-25T15:35:32.675Z,23.70
2023-05-25T15:38:01.566Z,24.10
2023-05-25T15:40:29.706Z,24.30
2023-05-25T15:42:57.830Z,22.80
2023-05-25T15:45:26.400Z,22.30
2023-05-25T15:47:54.661Z,22.30
2023-05-25T15:50:26.269Z,22.20
2023-05-25T15:52:54.047Z,22.00
2023-05-25T15:55:22.093Z,23.10
2023-05-25T15:57:52.332Z,22.30
2023-05-25T16:00:21.073Z,20.90
2023-05-25T16:02:53.229Z,22.60
2023-05-25T16:05:21.127Z,23.80
2023-05-25T16:07:50.216Z,23.30
2023-05-25T16:10:18.376Z,22.40
2023-05-25T16:12:47.334Z,22.10
2023-05-25T16:15:15.468Z,22.90
2023-05-25T16:17:43.252Z,23.00
2023-05-25T16:20:11.456Z,23.20
2023-05-25T16:22:44.188Z,22.30
2023-05-25T16:25:13.832Z,21.70
2023-05-25T16:27:42.173Z,22.90
2023-05-25T16:30:13.162Z,22.00
2023-05-25T16:32:47.533Z,21.40
2023-05-25T16:35:16.479Z,21.30
2023-05-25T16:37:45.058Z,21.90
2023-05-25T16:40:17.647Z,21.80
2023-05-25T16:42:46.101Z,22.20
2023-05-25T16:45:16.979Z,22.80
2023-05-25T16:47:44.799Z,22.70
2023-05-25T16:50:12.768Z,22.80
2023-05-25T16:52:40.928Z,23.40
2023-05-25T16:55:12.938Z,23.50
2023-05-25T16:57:42.427Z,22.40
2023-05-25T17:00:11.734Z,21.70
2023-05-25T17:02:39.875Z,21.80
2023-05-25T17:05:08.550Z,22.10
2023-05-25T17:07:37.651Z,22.60
2023-05-25T17:10:08.314Z,23.40
2023-05-25T17:12:36.399Z,23.60
2023-05-25T17:15:06.659Z,23.50
2023-05-25T17:17:35.086Z,22.80
2023-05-25T17:20:04.282Z,23.20
2023-05-25T17:22:32.435Z,23.00
2023-05-25T17:25:01.579Z,22.60
2023-05-25T17:27:29.495Z,22.00
2023-05-25T17:29:58.119Z,21.80
2023-05-25T17:32:27.449Z,21.40
2023-05-25T17:34:55.594Z,21.30
2023-05-25T17:37:24.466Z,20.80
2023-05-25T17:39:52.562Z,21.10
2023-05-25T17:42:22.456Z,21.10
2023-05-25T17:44:50.208Z,20.70
2023-05-25T17:47:18.217Z,20.70
2023-05-25T17:49:47.387Z,21.10
2023-05-25T17:52:15.112Z,20.90
2023-05-25T17:54:46.025Z,20.70
2023-05-25T17:57:14.147Z,20.60
2023-05-25T17:59:44.156Z,20.50
2023-05-25T18:02:13.759Z,20.10
2023-05-25T18:04:41.632Z,19.70
2023-05-25T18:07:11.707Z,19.70
2023-05-25T18:09:39.587Z,19.20
2023-05-25T18:12:09.947Z,19.20
2023-05-25T18:14:37.887Z,19.10
2023-05-25T18:17:07.696Z,19.00
2023-05-25T18:19:39.633Z,18.80
2023-05-25T18:22:07.938Z,18.60
2023-05-25T18:24:37.254Z,18.60
2023-05-25T18:27:05.829Z,18.50
2023-05-25T18:29:34.624Z,18.20
2023-05-25T18:32:02.488Z,18.00
2023-05-25T18:34:30.533Z,18.20
2023-05-25T18:36:58.560Z,17.90
2023-05-25T18:39:26.475Z,17.70
2023-05-25T18:41:55.520Z,17.50
2023-05-25T18:44:24.592Z,17.40
2023-05-25T18:46:53.511Z,17.30
2023-05-25T18:49:21.380Z,17.10
2023-05-25T18:51:49.482Z,16.80
2023-05-25T18:54:18.601Z,16.60
2023-05-25T18:56:47.409Z,16.40
2023-05-25T18:59:18.236Z,16.30
2023-05-25T19:01:48.443Z,16.20
2023-05-25T19:04:16.594Z,16.10
2023-05-25T19:06:44.602Z,16.00
2023-05-25T19:09:12.418Z,15.90
2023-05-25T19:11:40.948Z,15.80
2023-05-25T19:14:09.176Z,15.70
2023-05-25T19:16:38.639Z,15.70
2023-05-25T19:19:07.682Z,15.50
2023-05-25T19:21:36.894Z,15.50
2023-05-25T19:24:05.281Z,15.40
2023-05-25T19:26:36.728Z,15.40
2023-05-25T19:29:04.552Z,15.30
2023-05-25T19:31:39.163Z,15.20
2023-05-25T19:34:09.375Z,15.20
2023-05-25T19:36:38.766Z,15.00
2023-05-25T19:39:06.810Z,15.00
2023-05-25T19:41:36.567Z,14.90
2023-05-25T19:44:05.011Z,14.80
2023-05-25T19:46:33.523Z,14.80
2023-05-25T19:49:01.744Z,14.80
2023-05-25T19:51:31.107Z,14.70
2023-05-25T19:53:58.830Z,14.70
2023-05-25T19:56:27.682Z,14.60
2023-05-25T19:58:56.431Z,14.60
2023-05-25T20:01:24.787Z,14.60
2023-05-25T20:03:52.987Z,14.50
2023-05-25T20:06:21.301Z,14.40
2023-05-25T20:08:50.392Z,14.40
2023-05-25T20:11:18.173Z,14.40
2023-05-25T20:13:46.774Z,14.30
2023-05-25T20:16:14.924Z,14.30
2023-05-25T20:18:44.592Z,14.30
2023-05-25T20:21:12.459Z,14.20
2023-05-25T20:23:40.245Z,14.20
2023-05-25T20:26:09.453Z,14.10
2023-05-25T20:28:37.228Z,14.10
2023-05-25T20:31:07.215Z,14.10
2023-05-25T20:33:35.825Z,14.00
2023-05-25T20:36:05.754Z,13.90
2023-05-25T20:38:39.579Z,13.90
2023-05-25T20:41:09.136Z,13.80
2023-05-25T20:43:37.123Z,13.80
2023-05-25T20:46:07.240Z,13.70
2023-05-25T20:48:35.614Z,13.70
2023-05-25T20:51:04.440Z,13.60
2023-05-25T20:53:33.045Z,13.60
2023-05-25T20:56:04.955Z,13.50
2023-05-25T20:58:38.494Z,13.50
2023-05-25T21:01:21.496Z,13.50
2023-05-25T21:03:52.202Z,13.50
2023-05-25T21:06:23.549Z,13.40
2023-05-25T21:08:55.241Z,13.30
2023-05-25T21:11:26.212Z,13.30
2023-05-25T21:13:56.695Z,13.20
2023-05-25T21:16:24.905Z,13.20
2023-05-25T21:18:53.320Z,13.20
2023-05-25T21:21:24.334Z,13.10
2023-05-25T21:23:52.416Z,13.10
2023-05-25T21:26:21.293Z,13.00
2023-05-25T21:28:49.338Z,12.90
2023-05-25T21:31:23.064Z,12.90
2023-05-25T21:33:51.455Z,12.80
2023-05-25T21:36:20.031Z,12.70
2023-05-25T21:38:48.279Z,12.70
2023-05-25T21:41:16.476Z,12.70
2023-05-25T21:43:44.813Z,12.60
2023-05-25T21:46:13.169Z,12.60
2023-05-25T21:48:42.818Z,12.60
2023-05-25T21:51:11.956Z,12.60
2023-05-25T21:53:42.564Z,12.50
2023-05-25T21:56:10.680Z,12.50
2023-05-25T21:58:38.964Z,12.40
2023-05-25T22:01:07.242Z,12.40
2023-05-25T22:03:35.377Z,12.40
2023-05-25T22:06:05.358Z,12.30
2023-05-25T22:08:33.097Z,12.20
2023-05-25T22:11:01.309Z,12.00
2023-05-25T22:13:29.460Z,11.90
2023-05-25T22:15:57.789Z,11.90
2023-05-25T22:18:27.077Z,11.90
2023-05-25T22:20:56.262Z,11.80
2023-05-25T22:23:26.231Z,11.70
2023-05-25T22:25:54.256Z,11.70
2023-05-25T22:28:22.484Z,11.70
2023-05-25T22:30:51.518Z,11.70
2023-05-25T22:33:20.308Z,11.60
2023-05-25T22:35:48.456Z,11.60
2023-05-25T22:38:16.670Z,11.60
2023-05-25T22:40:47.630Z,11.50
2023-05-25T22:43:16.142Z,11.50
2023-05-25T22:45:44.347Z,11.50
2023-05-25T22:48:13.211Z,11.60
2023-05-25T22:50:41.430Z,11.60
2023-05-25T22:53:10.283Z,11.60
2023-05-25T22:55:38.818Z,11.70
2023-05-25T22:58:08.643Z,11.80
2023-05-25T23:00:38.335Z,11.90
2023-05-25T23:03:06.618Z,11.90
2023-05-25T23:05:35.248Z,11.90
2023-05-25T23:08:03.767Z,11.90
2023-05-25T23:10:34.459Z,11.90
2023-05-25T23:13:04.280Z,11.80
2023-05-25T23:15:37.710Z,11.80
2023-05-25T23:18:05.753Z,11.80
2023-05-25T23:20:35.909Z,11.70
2023-05-25T23:23:03.994Z,11.60
2023-05-25T23:25:33.151Z,11.70
2023-05-25T23:28:01.262Z,11.60
2023-05-25T23:30:29.825Z,11.50
2023-05-25T23:33:00.401Z,11.50
2023-05-25T23:35:30.970Z,11.50
2023-05-25T23:38:02.285Z,11.60
2023-05-25T23:40:31.170Z,11.50
2023-05-25T23:43:00.302Z,11.40
2023-05-25T23:45:28.444Z,11.40
2023-05-25T23:47:58.588Z,11.30
2023-05-25T23:50:30.894Z,11.40
2023-05-25T23:53:01.659Z,11.40
2023-05-25T23:55:29.832Z,11.30
2023-05-25T23:57:58.039Z,11.10
